createdAt,value
2023-01-12T00:02:14.021Z,12.95
2023-01-12T00:04:40.599Z,17.02
2023-01-12T00:07:12.188Z,12.75
2023-01-12T00:09:38.952Z,16.67
2023-01-12T00:12:07.854Z,18.00
2023-01-12T00:14:35.511Z,15.00
2023-01-12T00:17:02.539Z,14.63
2023-01-12T00:19:31.569Z,19.30
2023-01-12T00:22:07.014Z,12.35
2023-01-12T00:24:35.909Z,15.80
2023-01-12T00:27:04.722Z,19.90
2023-01-12T00:29:31.554Z,11.93
2023-01-12T00:32:00.191Z,20.30
2023-01-12T00:34:29.419Z,24.35
2023-01-12T00:36:56.466Z,13.02
2023-01-12T00:39:23.246Z,21.88
2023-01-12T00:42:08.095Z,14.93
2023-01-12T00:44:53.337Z,19.77
2023-01-12T00:47:19.690Z,21.50
2023-01-12T00:49:46.648Z,17.23
2023-01-12T00:52:29.308Z,15.50
2023-01-12T00:54:57.501Z,18.98
2023-01-12T00:57:24.046Z,15.68
2023-01-12T00:59:51.613Z,14.77
2023-01-12T01:02:18.187Z,18.90
2023-01-12T01:04:44.642Z,21.60
2023-01-12T01:07:11.107Z,21.65
2023-01-12T01:09:37.558Z,17.63
2023-01-12T01:12:04.113Z,19.15
2023-01-12T01:14:30.559Z,26.13
2023-01-12T01:16:56.986Z,21.15
2023-01-12T01:19:24.649Z,19.48
2023-01-12T01:21:51.084Z,24.58
2023-01-12T01:24:19.724Z,34.97
2023-01-12T01:26:46.161Z,20.85
2023-01-12T01:29:12.852Z,18.70
2023-01-12T01:31:40.693Z,24.80
2023-01-12T01:34:07.205Z,25.83
2023-01-12T01:36:34.290Z,31.27
2023-01-12T01:39:00.786Z,17.85
2023-01-12T01:41:30.202Z,24.83
2023-01-12T01:44:31.376Z,19.13
2023-01-12T01:47:15.423Z,18.17
2023-01-12T01:49:51.424Z,21.23
2023-01-12T01:52:28.757Z,17.00
2023-01-12T01:55:04.504Z,13.38
2023-01-12T01:57:45.977Z,17.67
2023-01-12T02:00:13.542Z,15.88
2023-01-12T02:02:42.562Z,11.57
2023-01-12T02:05:09.945Z,19.95
2023-01-12T02:07:36.662Z,12.35
2023-01-12T02:10:03.800Z,12.88
2023-01-12T02:12:49.408Z,17.15
2023-01-12T02:15:34.565Z,14.13
2023-01-12T02:18:21.426Z,14.98
2023-01-12T02:21:01.221Z,9.48
2023-01-12T02:23:42.998Z,14.38
2023-01-12T02:26:24.723Z,22.67
2023-01-12T02:29:06.507Z,15.93
2023-01-12T02:32:11.178Z,17.77
2023-01-12T02:35:04.692Z,8.93
2023-01-12T02:37:37.178Z,16.23
2023-01-12T02:40:25.726Z,12.35
2023-01-12T02:43:09.013Z,13.45
2023-01-12T02:45:51.488Z,10.80
2023-01-12T02:48:29.122Z,9.45
2023-01-12T02:51:22.901Z,6.68
2023-01-12T02:53:59.850Z,10.52
2023-01-12T02:56:35.287Z,13.73
2023-01-12T02:59:09.727Z,7.88
2023-01-12T03:01:37.703Z,11.45
2023-01-12T03:04:06.449Z,9.57
2023-01-12T03:06:45.631Z,10.90
2023-01-12T03:09:15.804Z,10.73
2023-01-12T03:11:44.016Z,14.73
2023-01-12T03:14:12.886Z,10.70
2023-01-12T03:16:40.410Z,12.38
2023-01-12T03:19:25.635Z,10.80
2023-01-12T03:22:00.070Z,13.00
2023-01-12T03:24:30.513Z,11.27
2023-01-12T03:27:06.173Z,13.32
2023-01-12T03:29:39.672Z,12.48
2023-01-12T03:32:06.695Z,15.05
2023-01-12T03:34:35.173Z,14.38
2023-01-12T03:37:30.091Z,14.98
2023-01-12T03:40:08.443Z,9.38
2023-01-12T03:43:13.850Z,13.63
2023-01-12T03:45:49.104Z,11.82
2023-01-12T03:48:22.360Z,6.80
2023-01-12T03:50:55.727Z,10.95
2023-01-12T03:53:23.391Z,8.20
2023-01-12T03:55:55.276Z,10.05
2023-01-12T03:58:24.147Z,5.35
2023-01-12T04:00:50.627Z,9.00
2023-01-12T04:03:18.242Z,6.22
2023-01-12T04:05:45.306Z,6.05
2023-01-12T04:08:13.774Z,5.93
2023-01-12T04:10:40.583Z,7.00
2023-01-12T04:13:07.027Z,7.50
2023-01-12T04:15:37.984Z,5.68
2023-01-12T04:18:05.213Z,5.38
2023-01-12T04:20:31.744Z,12.73
2023-01-12T04:22:58.569Z,6.68
2023-01-12T04:25:25.014Z,4.93
2023-01-12T04:27:56.692Z,5.32
2023-01-12T04:30:26.990Z,5.28
2023-01-12T04:32:54.613Z,7.10
2023-01-12T04:35:21.886Z,10.48
2023-01-12T04:37:48.373Z,8.93
2023-01-12T04:40:15.825Z,6.13
2023-01-12T04:43:08.275Z,7.68
2023-01-12T04:45:37.804Z,5.13
2023-01-12T04:48:07.252Z,6.60
2023-01-12T04:50:33.929Z,7.20
2023-01-12T04:53:04.758Z,6.78
2023-01-12T04:55:31.343Z,5.65
2023-01-12T04:58:00.988Z,5.75
2023-01-12T05:00:27.870Z,6.30
2023-01-12T05:02:59.207Z,8.55
2023-01-12T05:05:28.787Z,3.97
2023-01-12T05:08:14.376Z,4.28
2023-01-12T05:10:40.774Z,6.68
2023-01-12T05:13:07.205Z,5.80
2023-01-12T05:15:33.755Z,3.58
2023-01-12T05:18:00.194Z,7.10
2023-01-12T05:20:26.585Z,4.95
2023-01-12T05:22:53.087Z,4.75
2023-01-12T05:25:19.507Z,5.60
2023-01-12T05:27:45.906Z,4.63
2023-01-12T05:30:12.597Z,4.63
2023-01-12T05:32:41.241Z,7.85
2023-01-12T05:35:08.830Z,4.25
2023-01-12T05:37:35.410Z,2.78
2023-01-12T05:40:01.815Z,10.82
2023-01-12T05:42:47.356Z,3.65
2023-01-12T05:45:13.913Z,3.13
2023-01-12T05:47:40.346Z,3.10
2023-01-12T05:50:07.179Z,3.67
2023-01-12T05:52:36.482Z,3.10
2023-01-12T05:55:04.066Z,2.42
2023-01-12T05:57:31.211Z,2.92
2023-01-12T05:59:57.612Z,3.47
2023-01-12T06:02:24.040Z,2.78
2023-01-12T06:04:50.585Z,2.75
2023-01-12T06:07:17.136Z,4.38
2023-01-12T06:09:43.671Z,4.15
2023-01-12T06:12:31.468Z,2.67
2023-01-12T06:15:00.665Z,2.35
2023-01-12T06:17:27.040Z,2.60
2023-01-12T06:19:53.487Z,2.47
2023-01-12T06:22:19.918Z,2.17
2023-01-12T06:24:49.196Z,3.72
2023-01-12T06:27:16.453Z,4.55
2023-01-12T06:29:43.048Z,1.88
2023-01-12T06:32:09.425Z,2.50
2023-01-12T06:34:36.188Z,1.63
2023-01-12T06:37:04.540Z,4.45
2023-01-12T06:39:31.079Z,6.15
2023-01-12T06:42:16.318Z,1.83
2023-01-12T06:44:42.680Z,4.88
2023-01-12T06:47:09.062Z,4.97
2023-01-12T06:49:35.582Z,5.10
2023-01-12T06:52:05.338Z,4.97
2023-01-12T06:54:31.698Z,12.18
2023-01-12T06:56:58.139Z,7.63
2023-01-12T06:59:24.659Z,9.68
2023-01-12T07:01:51.328Z,10.15
2023-01-12T07:04:17.971Z,14.75
2023-01-12T07:06:44.499Z,14.63
2023-01-12T07:09:11.043Z,11.68
2023-01-12T07:11:37.467Z,12.38
2023-01-12T07:14:03.808Z,11.73
2023-01-12T07:16:30.249Z,15.52
2023-01-12T07:18:56.763Z,13.88
2023-01-12T07:21:23.264Z,12.48
2023-01-12T07:23:49.621Z,13.63
2023-01-12T07:26:16.128Z,14.38
2023-01-12T07:28:42.842Z,14.05
2023-01-12T07:31:09.482Z,15.63
2023-01-12T07:33:37.770Z,16.30
2023-01-12T07:36:04.954Z,16.02
2023-01-12T07:38:31.737Z,21.33
2023-01-12T07:41:00.147Z,16.08
2023-01-12T07:43:26.735Z,13.90
2023-01-12T07:45:55.821Z,15.82
2023-01-12T07:48:22.742Z,17.10
2023-01-12T07:50:49.254Z,20.35
2023-01-12T07:53:15.627Z,15.00
2023-01-12T07:55:43.742Z,16.98
2023-01-12T07:58:10.642Z,19.83
2023-01-12T08:00:37.336Z,22.27
2023-01-12T08:03:09.562Z,18.55
2023-01-12T08:05:39.745Z,16.92
2023-01-12T08:08:07.055Z,19.00
2023-01-12T08:10:33.820Z,26.10
2023-01-12T08:13:00.324Z,14.88
2023-01-12T08:15:31.656Z,17.48
2023-01-12T08:18:06.330Z,20.05
2023-01-12T08:20:37.285Z,24.50
2023-01-12T08:23:15.527Z,17.83
2023-01-12T08:25:46.393Z,26.52
2023-01-12T08:28:17.496Z,14.40
2023-01-12T08:30:46.871Z,23.70
2023-01-12T08:33:13.584Z,23.75
2023-01-12T08:35:40.167Z,16.40
2023-01-12T08:38:06.725Z,13.93
2023-01-12T08:40:51.824Z,22.85
2023-01-12T08:43:38.151Z,17.17
2023-01-12T08:46:07.913Z,30.48
2023-01-12T08:48:38.091Z,19.63
2023-01-12T08:51:07.771Z,25.38
2023-01-12T08:53:34.357Z,17.20
2023-01-12T08:56:00.762Z,18.52
2023-01-12T08:58:27.289Z,19.77
2023-01-12T09:00:53.949Z,21.35
2023-01-12T09:03:20.522Z,20.98
2023-01-12T09:05:47.829Z,14.93
2023-01-12T09:08:14.750Z,16.60
2023-01-12T09:10:41.235Z,19.92
2023-01-12T09:13:07.719Z,19.42
2023-01-12T09:15:34.090Z,23.42
2023-01-12T09:18:00.533Z,18.60
2023-01-12T09:20:26.998Z,19.65
2023-01-12T09:22:53.475Z,32.53
2023-01-12T09:25:25.871Z,19.48
2023-01-12T09:27:52.385Z,17.15
2023-01-12T09:30:19.045Z,33.97
2023-01-12T09:32:45.595Z,25.52
2023-01-12T09:35:12.064Z,26.98
2023-01-12T09:37:40.459Z,15.95
2023-01-12T09:40:07.550Z,23.13
2023-01-12T09:42:53.465Z,19.05
2023-01-12T09:45:41.341Z,23.02
2023-01-12T09:48:18.509Z,19.02
2023-01-12T09:50:55.948Z,24.27
2023-01-12T09:53:27.875Z,17.05
2023-01-12T09:56:03.342Z,19.83
2023-01-12T09:59:11.369Z,19.00
2023-01-12T10:01:38.573Z,22.98
2023-01-12T10:04:05.497Z,29.33
2023-01-12T10:06:33.023Z,27.88
2023-01-12T10:09:09.925Z,24.30
2023-01-12T10:11:58.030Z,26.50
2023-01-12T10:14:33.699Z,24.55
2023-01-12T10:17:14.565Z,19.85
2023-01-12T10:19:51.105Z,21.40
2023-01-12T10:22:37.021Z,19.08
2023-01-12T10:25:12.803Z,22.15
2023-01-12T10:27:43.220Z,17.65
2023-01-12T10:30:40.588Z,18.15
2023-01-12T10:33:22.811Z,21.23
2023-01-12T10:38:28.336Z,17.20
2023-01-12T10:41:17.140Z,24.45
2023-01-12T10:43:47.687Z,18.20
2023-01-12T10:46:19.411Z,16.13
2023-01-12T10:48:48.466Z,25.02
2023-01-12T10:51:34.520Z,16.65
2023-01-12T10:54:32.666Z,19.38
2023-01-12T10:57:16.579Z,25.88
2023-01-12T10:59:57.911Z,18.63
2023-01-12T11:02:28.349Z,22.77
2023-01-12T11:04:55.570Z,17.33
2023-01-12T11:07:28.885Z,19.23
2023-01-12T11:10:20.163Z,16.55
2023-01-12T11:12:58.914Z,10.90
2023-01-12T11:15:26.287Z,17.33
2023-01-12T11:18:32.088Z,19.83
2023-01-12T11:21:04.368Z,19.88
2023-01-12T11:24:05.634Z,23.38
2023-01-12T11:26:53.072Z,20.25
2023-01-12T11:29:45.142Z,20.08
2023-01-12T11:32:24.896Z,16.73
2023-01-12T11:34:57.559Z,18.63
2023-01-12T11:37:24.312Z,11.27
2023-01-12T11:39:57.943Z,17.80
2023-01-12T11:42:46.957Z,25.60
2023-01-12T11:45:17.257Z,13.00
2023-01-12T11:47:50.844Z,11.50
2023-01-12T11:50:25.300Z,16.90
2023-01-12T11:52:52.703Z,17.63
2023-01-12T11:55:42.670Z,21.58
2023-01-12T11:58:19.799Z,20.50
2023-01-12T12:00:55.458Z,16.00
2023-01-12T12:03:33.389Z,20.50
2023-01-12T12:06:18.359Z,15.65
2023-01-12T12:09:17.373Z,16.98
2023-01-12T12:11:56.598Z,18.10
2023-01-12T12:14:41.607Z,17.15
2023-01-12T12:17:21.849Z,23.33
2023-01-12T12:20:07.025Z,16.42
2023-01-12T12:22:57.699Z,13.75
2023-01-12T12:25:32.877Z,12.43
2023-01-12T12:28:16.584Z,18.10
2023-01-12T12:31:06.751Z,14.80
2023-01-12T12:33:51.230Z,19.95
2023-01-12T12:36:39.647Z,17.13
2023-01-12T12:39:50.751Z,22.90
2023-01-12T12:43:01.847Z,18.70
2023-01-12T12:45:43.532Z,17.05
2023-01-12T12:48:15.822Z,17.52
2023-01-12T12:51:00.101Z,18.67
2023-01-12T12:53:30.775Z,10.55
2023-01-12T12:56:01.006Z,15.18
2023-01-12T12:58:37.733Z,11.80
2023-01-12T13:01:19.490Z,12.05
2023-01-12T13:03:46.933Z,18.40
2023-01-12T13:06:38.948Z,7.25
2023-01-12T13:09:11.534Z,7.22
2023-01-12T13:12:00.476Z,8.88
2023-01-12T13:14:33.124Z,3.63
2023-01-12T13:17:00.870Z,3.17
2023-01-12T13:19:40.902Z,3.63
2023-01-12T13:22:32.579Z,4.15
2023-01-12T13:25:24.328Z,2.42
2023-01-12T13:28:02.917Z,2.83
2023-01-12T13:30:29.566Z,4.82
2023-01-12T13:33:17.201Z,2.78
2023-01-12T13:35:46.907Z,4.03
2023-01-12T13:38:44.175Z,4.13
2023-01-12T13:41:13.595Z,7.05
2023-01-12T13:43:55.115Z,1.95
2023-01-12T13:46:25.967Z,2.95
2023-01-12T13:48:56.395Z,4.22
2023-01-12T13:51:34.224Z,2.30
2023-01-12T13:54:07.377Z,2.58
2023-01-12T13:56:33.932Z,3.22
2023-01-12T13:59:03.563Z,2.15
2023-01-12T14:01:34.642Z,2.63
2023-01-12T14:04:10.175Z,2.70
2023-01-12T14:07:14.105Z,4.10
2023-01-12T14:10:05.120Z,2.88
2023-01-12T14:12:43.862Z,1.88
2023-01-12T14:16:00.458Z,2.03
2023-01-12T14:18:48.518Z,2.70
2023-01-12T14:21:29.146Z,3.05
2023-01-12T14:24:16.258Z,2.85
2023-01-12T14:26:42.763Z,1.63
2023-01-12T14:29:12.885Z,3.75
2023-01-12T14:31:44.219Z,2.08
2023-01-12T14:34:32.334Z,2.92
2023-01-12T14:36:59.917Z,1.40
2023-01-12T14:39:29.636Z,1.60
2023-01-12T14:42:16.329Z,1.88
2023-01-12T14:45:09.195Z,1.23
2023-01-12T14:47:35.840Z,2.38
2023-01-12T14:50:16.502Z,1.77
2023-01-12T14:52:49.157Z,2.83
2023-01-12T14:55:15.607Z,1.77
2023-01-12T14:57:54.948Z,2.20
2023-01-12T15:00:28.324Z,4.47
2023-01-12T15:02:56.736Z,1.40
2023-01-12T15:05:26.388Z,4.03
2023-01-12T15:08:32.559Z,2.58
2023-01-12T15:11:06.140Z,3.13
2023-01-12T15:13:34.631Z,3.60
2023-01-12T15:16:20.980Z,3.35
2023-01-12T15:19:06.052Z,2.67
2023-01-12T15:21:53.230Z,3.25
2023-01-12T15:24:46.886Z,2.35
2023-01-12T15:27:17.236Z,3.72
2023-01-12T15:29:43.729Z,4.28
2023-01-12T15:32:19.166Z,2.50
2023-01-12T15:34:46.085Z,2.40
2023-01-12T15:37:17.480Z,1.80
2023-01-12T15:39:44.284Z,1.90
2023-01-12T15:42:17.851Z,2.28
2023-01-12T15:44:45.999Z,3.22
2023-01-12T15:47:16.528Z,3.53
2023-01-12T15:49:48.652Z,4.22
2023-01-12T15:52:20.302Z,2.58
2023-01-12T15:54:47.041Z,3.00
2023-01-12T15:57:14.947Z,2.28
2023-01-12T15:59:42.849Z,2.30
2023-01-12T16:02:24.010Z,2.40
2023-01-12T16:04:50.599Z,2.92
2023-01-12T16:07:17.004Z,2.33
2023-01-12T16:09:47.638Z,2.58
2023-01-12T16:12:14.919Z,2.97
2023-01-12T16:14:41.538Z,2.08
2023-01-12T16:17:08.039Z,3.15
2023-01-12T16:19:40.883Z,3.30
2023-01-12T16:22:25.162Z,2.63
2023-01-12T16:24:53.419Z,3.55
2023-01-12T16:27:22.911Z,3.03
2023-01-12T16:29:49.538Z,3.90
2023-01-12T16:32:16.113Z,1.95
2023-01-12T16:34:42.607Z,2.10
2023-01-12T16:37:16.023Z,2.97
2023-01-12T16:39:42.985Z,2.35
2023-01-12T16:42:11.379Z,3.53
2023-01-12T16:44:40.156Z,4.03
2023-01-12T16:47:10.795Z,1.75
2023-01-12T16:49:37.278Z,5.70
2023-01-12T16:52:04.948Z,3.85
2023-01-12T16:54:33.374Z,2.40
2023-01-12T16:57:00.033Z,1.80
2023-01-12T16:59:32.614Z,2.30
2023-01-12T17:02:07.719Z,3.08
2023-01-12T17:04:35.972Z,2.45
2023-01-12T17:07:03.693Z,2.83
2023-01-12T17:09:30.242Z,4.15
2023-01-12T17:11:58.194Z,5.88
2023-01-12T17:14:25.337Z,2.17
2023-01-12T17:16:54.826Z,1.98
2023-01-12T17:19:24.474Z,2.92
2023-01-12T17:21:51.366Z,2.75
2023-01-12T17:24:21.321Z,3.75
2023-01-12T17:26:50.102Z,2.60
2023-01-12T17:29:16.571Z,3.05
2023-01-12T17:31:43.481Z,1.70
2023-01-12T17:34:12.097Z,3.83
2023-01-12T17:36:38.915Z,3.80
2023-01-12T17:39:06.865Z,4.93
2023-01-12T17:41:51.919Z,6.72
2023-01-12T17:44:18.820Z,5.32
2023-01-12T17:46:45.697Z,4.00
2023-01-12T17:49:13.196Z,4.35
2023-01-12T17:51:40.605Z,3.08
2023-01-12T17:54:08.815Z,5.30
2023-01-12T17:56:35.525Z,4.57
2023-01-12T17:59:05.425Z,5.10
2023-01-12T18:01:34.121Z,6.53
2023-01-12T18:04:01.092Z,4.55
2023-01-12T18:06:27.968Z,3.60
2023-01-12T18:09:01.703Z,5.75
2023-01-12T18:11:29.178Z,4.18
2023-01-12T18:13:55.722Z,3.40
2023-01-12T18:16:22.251Z,6.32
2023-01-12T18:18:50.496Z,4.00
2023-01-12T18:21:21.009Z,4.47
2023-01-12T18:23:49.291Z,5.65
2023-01-12T18:26:29.161Z,5.32
2023-01-12T18:28:57.246Z,4.93
2023-01-12T18:31:26.436Z,4.03
2023-01-12T18:34:05.579Z,5.40
2023-01-12T18:36:34.531Z,2.78
2023-01-12T18:39:01.013Z,4.55
2023-01-12T18:41:45.849Z,3.90
2023-01-12T18:44:12.280Z,4.75
2023-01-12T18:47:02.625Z,6.10
2023-01-12T18:49:33.883Z,3.90
2023-01-12T18:52:19.840Z,3.15
2023-01-12T18:54:48.095Z,4.35
2023-01-12T18:57:18.924Z,3.35
2023-01-12T18:59:50.846Z,7.20
2023-01-12T19:02:18.633Z,9.27
2023-01-12T19:04:50.808Z,5.20
2023-01-12T19:09:43.991Z,4.13
2023-01-12T19:12:10.347Z,2.67
2023-01-12T19:14:55.189Z,4.00
2023-01-12T19:17:27.317Z,4.38
2023-01-12T19:22:39.315Z,3.60
2023-01-12T19:25:24.539Z,4.95
2023-01-12T19:28:09.390Z,4.38
2023-01-12T19:30:37.475Z,4.47
2023-01-12T19:33:07.994Z,4.95
2023-01-12T19:35:36.307Z,4.72
2023-01-12T19:38:02.787Z,7.65
2023-01-12T19:40:35.365Z,4.07
2023-01-12T19:43:18.602Z,5.13
2023-01-12T19:45:47.340Z,7.97
2023-01-12T19:48:15.711Z,5.40
2023-01-12T19:50:44.067Z,3.42
2023-01-12T19:53:14.696Z,5.22
2023-01-12T19:55:42.555Z,4.63
2023-01-12T19:58:09.908Z,4.05
2023-01-12T20:00:43.072Z,5.53
2023-01-12T20:03:10.674Z,5.95
2023-01-12T20:05:38.627Z,2.80
2023-01-12T20:08:06.649Z,6.03
2023-01-12T20:10:34.331Z,3.08
2023-01-12T20:13:01.932Z,6.18
2023-01-12T20:15:28.600Z,3.60
2023-01-12T20:17:58.125Z,2.90
2023-01-12T20:20:24.495Z,4.60
2023-01-12T20:22:51.050Z,3.00
2023-01-12T20:25:18.132Z,4.65
2023-01-12T20:27:46.254Z,5.93
2023-01-12T20:30:16.460Z,3.58
2023-01-12T20:32:45.604Z,3.38
2023-01-12T20:35:15.427Z,2.78
2023-01-12T20:37:43.050Z,2.78
2023-01-12T20:40:10.808Z,3.03
2023-01-12T20:42:37.379Z,2.38
2023-01-12T20:45:05.818Z,2.90
2023-01-12T20:47:33.602Z,3.38
2023-01-12T20:50:01.036Z,3.92
2023-01-12T20:52:28.227Z,2.80
2023-01-12T20:54:55.105Z,1.55
2023-01-12T20:57:21.629Z,1.80
2023-01-12T20:59:48.948Z,2.33
2023-01-12T21:02:27.990Z,1.88
2023-01-12T21:04:54.413Z,4.93
2023-01-12T21:07:21.824Z,4.32
2023-01-12T21:09:48.339Z,3.53
2023-01-12T21:12:14.739Z,7.47
2023-01-12T21:14:41.176Z,4.00
2023-01-12T21:17:10.494Z,9.45
2023-01-12T21:19:36.974Z,5.45
2023-01-12T21:22:04.005Z,10.07
2023-01-12T21:24:30.653Z,8.85
2023-01-12T21:26:57.111Z,6.57
2023-01-12T21:29:26.435Z,5.57
2023-01-12T21:31:53.541Z,3.75
2023-01-12T21:34:20.097Z,11.30
2023-01-12T21:36:46.774Z,6.22
2023-01-12T21:39:13.432Z,5.60
2023-01-12T21:41:58.203Z,11.20
2023-01-12T21:44:24.582Z,8.48
2023-01-12T21:46:50.977Z,4.90
2023-01-12T21:49:17.415Z,6.60
2023-01-12T21:51:43.884Z,5.90
2023-01-12T21:54:10.670Z,6.45
2023-01-12T21:56:37.108Z,7.22
2023-01-12T21:59:03.627Z,6.25
2023-01-12T22:01:32.574Z,10.85
2023-01-12T22:03:59.180Z,11.48
2023-01-12T22:06:25.546Z,10.13
2023-01-12T22:08:54.642Z,12.90
2023-01-12T22:11:21.028Z,11.18
2023-01-12T22:13:47.467Z,10.73
2023-01-12T22:16:15.224Z,18.65
2023-01-12T22:18:49.116Z,22.98
2023-01-12T22:21:17.107Z,11.48
2023-01-12T22:23:43.881Z,11.85
2023-01-12T22:26:13.931Z,10.73
2023-01-12T22:28:42.392Z,15.75
2023-01-12T22:31:12.949Z,13.93
2023-01-12T22:33:39.887Z,21.25
2023-01-12T22:36:07.507Z,13.60
2023-01-12T22:38:34.298Z,13.45
2023-01-12T22:41:07.424Z,18.20
2023-01-12T22:43:40.414Z,20.50
2023-01-12T22:46:17.427Z,15.23
2023-01-12T22:48:44.011Z,14.30
2023-01-12T22:51:10.535Z,17.42
2023-01-12T22:53:36.925Z,17.52
2023-01-12T22:56:04.526Z,14.80
2023-01-12T22:58:31.203Z,19.85
2023-01-12T23:01:09.425Z,14.93
2023-01-12T23:03:37.411Z,22.63
2023-01-12T23:06:04.990Z,19.40
2023-01-12T23:08:31.515Z,19.70
2023-01-12T23:11:09.246Z,21.10
2023-01-12T23:13:35.869Z,23.13
2023-01-12T23:16:06.496Z,20.00
2023-01-12T23:18:35.234Z,17.52
2023-01-12T23:21:15.998Z,23.73
2023-01-12T23:23:53.805Z,21.13
2023-01-12T23:26:39.427Z,17.23
2023-01-12T23:29:05.817Z,17.27
2023-01-12T23:31:33.646Z,22.60
2023-01-12T23:34:00.727Z,16.77
2023-01-12T23:36:29.427Z,20.08
2023-01-12T23:39:03.447Z,17.98
2023-01-12T23:41:32.237Z,25.48
2023-01-12T23:44:00.740Z,16.58
2023-01-12T23:46:29.210Z,17.48
2023-01-12T23:48:58.919Z,27.17
2023-01-12T23:51:27.053Z,21.63
2023-01-12T23:54:00.033Z,29.55
2023-01-12T23:56:28.485Z,23.90
2023-01-12T23:58:55.116Z,28.10
